createdAt,value
2022-12-31T00:00:36.550Z,20.10
2022-12-31T00:03:05.478Z,15.33
2022-12-31T00:05:34.679Z,18.83
2022-12-31T00:08:02.979Z,14.20
2022-12-31T00:10:31.234Z,16.33
2022-12-31T00:13:00.899Z,17.13
2022-12-31T00:15:29.426Z,13.70
2022-12-31T00:17:57.621Z,17.60
2022-12-31T00:20:25.783Z,12.87
2022-12-31T00:22:53.982Z,22.20
2022-12-31T00:25:22.267Z,23.87
2022-12-31T00:27:50.863Z,19.17
2022-12-31T00:30:20.598Z,13.50
2022-12-31T00:32:48.815Z,14.50
2022-12-31T00:35:19.392Z,16.83
2022-12-31T00:37:47.656Z,23.03
2022-12-31T00:40:15.969Z,25.70
2022-12-31T00:42:44.154Z,16.53
2022-12-31T00:45:12.655Z,17.77
2022-12-31T00:47:42.288Z,18.47
2022-12-31T00:50:10.950Z,16.70
2022-12-31T00:52:39.129Z,17.30
2022-12-31T00:55:08.538Z,17.67
2022-12-31T00:57:36.752Z,20.13
2022-12-31T01:00:07.624Z,16.07
2022-12-31T01:02:36.084Z,17.50
2022-12-31T01:05:06.717Z,22.23
2022-12-31T01:07:38.962Z,15.00
2022-12-31T01:10:08.052Z,13.33
2022-12-31T01:12:36.235Z,15.77
2022-12-31T01:15:04.738Z,18.53
2022-12-31T01:17:33.035Z,14.03
2022-12-31T01:20:05.284Z,14.77
2022-12-31T01:22:33.525Z,13.27
2022-12-31T01:25:01.656Z,15.53
2022-12-31T01:27:30.461Z,17.67
2022-12-31T01:29:58.695Z,15.13
2022-12-31T01:32:26.889Z,14.68
2022-12-31T01:34:55.099Z,14.93
2022-12-31T01:37:24.721Z,13.30
2022-12-31T01:39:52.896Z,13.90
2022-12-31T01:42:21.213Z,26.57
2022-12-31T01:44:55.795Z,18.77
2022-12-31T01:47:34.179Z,13.20
2022-12-31T01:50:07.715Z,14.10
2022-12-31T01:52:43.589Z,12.40
2022-12-31T01:55:22.399Z,14.77
2022-12-31T01:57:56.669Z,11.50
2022-12-31T02:00:24.996Z,14.03
2022-12-31T02:02:53.761Z,15.13
2022-12-31T02:05:28.400Z,16.30
2022-12-31T02:08:00.843Z,15.87
2022-12-31T02:10:29.404Z,14.03
2022-12-31T02:12:57.899Z,11.67
2022-12-31T02:15:34.984Z,13.43
2022-12-31T02:18:11.842Z,11.90
2022-12-31T02:21:09.868Z,11.43
2022-12-31T02:24:05.332Z,8.03
2022-12-31T02:26:59.787Z,11.43
2022-12-31T02:29:51.463Z,13.17
2022-12-31T02:32:25.319Z,11.80
2022-12-31T02:34:57.782Z,15.33
2022-12-31T02:37:28.375Z,13.03
2022-12-31T02:39:59.564Z,12.23
2022-12-31T02:42:27.713Z,16.20
2022-12-31T02:44:55.926Z,11.90
2022-12-31T02:47:39.364Z,17.67
2022-12-31T02:50:24.595Z,10.87
2022-12-31T02:53:04.552Z,13.57
2022-12-31T02:55:41.345Z,8.77
2022-12-31T02:58:17.808Z,12.03
2022-12-31T03:01:09.954Z,11.77
2022-12-31T03:03:40.354Z,15.23
2022-12-31T03:06:10.708Z,14.03
2022-12-31T03:08:56.733Z,23.90
2022-12-31T03:11:38.805Z,13.93
2022-12-31T03:14:07.009Z,14.87
2022-12-31T03:16:35.242Z,8.73
2022-12-31T03:19:23.449Z,9.07
2022-12-31T03:22:08.890Z,10.30
2022-12-31T03:24:54.342Z,22.53
2022-12-31T03:27:22.624Z,9.93
2022-12-31T03:29:50.769Z,12.70
2022-12-31T03:32:18.922Z,9.27
2022-12-31T03:34:48.626Z,8.93
2022-12-31T03:37:16.777Z,7.70
2022-12-31T03:39:44.968Z,13.57
2022-12-31T03:42:13.166Z,12.00
2022-12-31T03:44:41.374Z,7.13
2022-12-31T03:47:12.073Z,11.83
2022-12-31T03:49:40.295Z,6.80
2022-12-31T03:52:09.889Z,13.27
2022-12-31T03:54:38.034Z,12.37
2022-12-31T03:57:06.202Z,12.63
2022-12-31T03:59:34.402Z,8.87
2022-12-31T04:02:02.777Z,7.20
2022-12-31T04:04:31.887Z,9.37
2022-12-31T04:07:00.173Z,7.40
2022-12-31T04:09:29.917Z,9.40
2022-12-31T04:11:58.099Z,18.47
2022-12-31T04:14:26.281Z,9.70
2022-12-31T04:16:54.490Z,7.57
2022-12-31T04:19:22.764Z,18.70
2022-12-31T04:21:51.009Z,23.03
2022-12-31T04:24:19.211Z,12.23
2022-12-31T04:26:48.722Z,8.23
2022-12-31T04:29:17.024Z,7.30
2022-12-31T04:31:45.195Z,6.33
2022-12-31T04:34:13.405Z,7.20
2022-12-31T04:36:41.582Z,10.53
2022-12-31T04:39:10.213Z,12.97
2022-12-31T04:41:38.361Z,16.80
2022-12-31T04:44:07.929Z,17.23
2022-12-31T04:46:36.145Z,8.03
2022-12-31T04:49:04.531Z,12.43
2022-12-31T04:51:33.823Z,8.53
2022-12-31T04:54:02.273Z,6.90
2022-12-31T04:56:32.543Z,8.30
2022-12-31T04:59:00.752Z,14.17
2022-12-31T05:01:30.382Z,10.70
2022-12-31T05:03:58.808Z,12.50
2022-12-31T05:06:27.056Z,9.47
2022-12-31T05:08:55.306Z,8.90
2022-12-31T05:11:23.551Z,7.77
2022-12-31T05:13:51.782Z,10.70
2022-12-31T05:16:19.979Z,8.83
2022-12-31T05:18:51.984Z,14.00
2022-12-31T05:21:22.110Z,23.73
2022-12-31T05:23:50.554Z,6.90
2022-12-31T05:26:18.869Z,8.90
2022-12-31T05:28:47.049Z,11.53
2022-12-31T05:31:15.353Z,15.27
2022-12-31T05:33:43.518Z,22.77
2022-12-31T05:36:15.869Z,12.00
2022-12-31T05:38:44.194Z,17.33
2022-12-31T05:41:12.526Z,9.67
2022-12-31T05:43:40.692Z,10.90
2022-12-31T05:46:09.312Z,8.20
2022-12-31T05:48:37.493Z,8.60
2022-12-31T05:51:06.100Z,7.10
2022-12-31T05:53:35.611Z,9.03
2022-12-31T05:56:03.807Z,8.63
2022-12-31T05:58:31.955Z,7.63
2022-12-31T06:01:00.261Z,9.70
2022-12-31T06:03:28.494Z,12.87
2022-12-31T06:05:56.748Z,6.90
2022-12-31T06:08:27.235Z,9.27
2022-12-31T06:10:56.742Z,8.07
2022-12-31T06:13:24.978Z,6.63
2022-12-31T06:15:55.458Z,8.60
2022-12-31T06:18:23.634Z,7.23
2022-12-31T06:20:51.802Z,10.00
2022-12-31T06:23:20.093Z,7.80
2022-12-31T06:25:48.236Z,8.47
2022-12-31T06:28:20.329Z,8.50
2022-12-31T06:30:49.459Z,7.67
2022-12-31T06:33:20.110Z,7.10
2022-12-31T06:35:48.280Z,5.27
2022-12-31T06:38:16.443Z,8.90
2022-12-31T06:40:44.591Z,4.50
2022-12-31T06:43:12.825Z,14.03
2022-12-31T06:45:43.369Z,5.87
2022-12-31T06:48:11.706Z,6.27
2022-12-31T06:50:41.064Z,13.93
2022-12-31T06:53:09.321Z,8.37
2022-12-31T06:55:37.996Z,11.97
2022-12-31T06:58:06.709Z,5.93
2022-12-31T07:00:35.308Z,5.30
2022-12-31T07:03:19.529Z,7.83
2022-12-31T07:05:51.933Z,10.23
2022-12-31T07:08:32.384Z,8.73
2022-12-31T07:11:05.140Z,7.10
2022-12-31T07:14:01.048Z,6.43
2022-12-31T07:16:45.323Z,6.30
2022-12-31T07:19:29.531Z,6.57
2022-12-31T07:21:59.586Z,5.57
2022-12-31T07:24:28.783Z,7.10
2022-12-31T07:27:23.339Z,20.77
2022-12-31T07:30:04.189Z,5.20
2022-12-31T07:32:45.446Z,5.70
2022-12-31T07:35:23.111Z,4.60
2022-12-31T07:38:00.689Z,5.60
2022-12-31T07:40:39.414Z,4.40
2022-12-31T07:43:16.871Z,5.57
2022-12-31T07:45:50.270Z,5.70
2022-12-31T07:48:25.423Z,4.33
2022-12-31T07:50:56.622Z,4.67
2022-12-31T07:53:26.061Z,11.90
2022-12-31T07:55:57.391Z,5.40
2022-12-31T07:58:33.476Z,5.07
2022-12-31T08:01:02.889Z,4.30
2022-12-31T08:03:48.901Z,4.17
2022-12-31T08:06:26.188Z,4.73
2022-12-31T08:09:04.986Z,4.10
2022-12-31T08:11:39.394Z,4.37
2022-12-31T08:14:11.226Z,7.00
2022-12-31T08:16:40.098Z,5.73
2022-12-31T08:19:13.894Z,6.13
2022-12-31T08:21:55.392Z,6.53
2022-12-31T08:24:31.504Z,5.73
2022-12-31T08:27:06.370Z,4.97
2022-12-31T08:29:46.095Z,4.73
2022-12-31T08:32:22.263Z,5.30
2022-12-31T08:35:00.189Z,4.73
2022-12-31T08:37:37.777Z,6.13
2022-12-31T08:40:17.954Z,4.67
2022-12-31T08:42:56.987Z,5.03
2022-12-31T08:45:29.537Z,5.17
2022-12-31T08:48:02.672Z,3.87
2022-12-31T08:50:33.963Z,4.33
2022-12-31T08:53:04.368Z,5.80
2022-12-31T08:55:33.122Z,3.00
2022-12-31T08:58:11.547Z,4.90
2022-12-31T09:00:41.735Z,6.33
2022-12-31T09:03:53.852Z,6.20
2022-12-31T09:06:28.521Z,3.10
2022-12-31T09:09:05.889Z,4.00
2022-12-31T09:11:43.662Z,6.07
2022-12-31T09:14:24.275Z,8.80
2022-12-31T09:17:01.209Z,3.67
2022-12-31T09:19:29.693Z,3.23
2022-12-31T09:21:58.319Z,3.77
2022-12-31T09:24:28.603Z,5.57
2022-12-31T09:27:06.432Z,3.67
2022-12-31T09:29:47.111Z,5.77
2022-12-31T09:32:24.436Z,3.07
2022-12-31T09:34:58.561Z,4.40
2022-12-31T09:37:39.643Z,5.77
2022-12-31T09:40:39.083Z,7.00
2022-12-31T09:44:00.712Z,6.37
2022-12-31T09:47:11.444Z,4.47
2022-12-31T09:50:01.372Z,5.27
2022-12-31T09:52:40.863Z,4.40
2022-12-31T09:55:32.637Z,4.27
2022-12-31T09:58:13.658Z,3.80
2022-12-31T10:00:46.675Z,8.33
2022-12-31T10:03:30.844Z,3.60
2022-12-31T10:06:22.680Z,13.23
2022-12-31T10:09:16.271Z,4.23
2022-12-31T10:12:07.390Z,6.23
2022-12-31T10:14:56.789Z,3.70
2022-12-31T10:17:38.832Z,4.10
2022-12-31T10:20:28.728Z,3.80
2022-12-31T10:23:16.091Z,11.90
2022-12-31T10:26:10.068Z,6.57
2022-12-31T10:28:49.103Z,8.17
2022-12-31T10:31:34.161Z,6.83
2022-12-31T10:34:14.028Z,6.03
2022-12-31T10:36:54.950Z,5.43
2022-12-31T10:39:45.718Z,5.33
2022-12-31T10:42:41.396Z,5.37
2022-12-31T10:46:10.022Z,7.73
2022-12-31T10:49:00.206Z,4.37
2022-12-31T10:52:10.595Z,4.47
2022-12-31T10:55:13.987Z,3.80
2022-12-31T10:58:23.041Z,4.60
2022-12-31T11:00:59.546Z,4.60
2022-12-31T11:04:00.215Z,6.10
2022-12-31T11:06:54.780Z,5.53
2022-12-31T11:10:02.204Z,4.87
2022-12-31T11:12:52.741Z,5.53
2022-12-31T11:15:39.460Z,7.33
2022-12-31T11:18:16.624Z,3.60
2022-12-31T11:21:15.240Z,8.00
2022-12-31T11:23:56.473Z,4.63
2022-12-31T11:26:38.469Z,4.37
2022-12-31T11:29:25.562Z,4.77
2022-12-31T11:32:16.313Z,4.13
2022-12-31T11:35:03.365Z,4.00
2022-12-31T11:37:41.429Z,4.97
2022-12-31T11:40:39.996Z,3.87
2022-12-31T11:43:22.106Z,4.50
2022-12-31T11:46:21.338Z,4.37
2022-12-31T11:49:08.560Z,4.13
2022-12-31T11:51:57.151Z,4.37
2022-12-31T11:54:50.744Z,3.30
2022-12-31T11:57:27.268Z,2.80
2022-12-31T11:59:58.898Z,4.47
2022-12-31T12:02:29.388Z,2.90
2022-12-31T12:05:06.572Z,3.23
2022-12-31T12:07:40.853Z,4.90
2022-12-31T12:10:24.121Z,3.03
2022-12-31T12:12:53.398Z,4.30
2022-12-31T12:15:25.339Z,4.50
2022-12-31T12:17:56.346Z,5.70
2022-12-31T12:20:31.396Z,5.10
2022-12-31T12:23:01.486Z,3.70
2022-12-31T12:25:40.859Z,3.00
2022-12-31T12:28:21.617Z,5.00
2022-12-31T12:30:56.579Z,4.83
2022-12-31T12:33:29.723Z,3.83
2022-12-31T12:36:09.313Z,4.87
2022-12-31T12:38:38.711Z,4.30
2022-12-31T12:41:19.239Z,3.60
2022-12-31T12:43:47.762Z,3.17
2022-12-31T12:46:24.204Z,3.40
2022-12-31T12:48:57.806Z,5.83
2022-12-31T12:51:43.556Z,3.60
2022-12-31T12:54:25.876Z,9.17
2022-12-31T12:57:03.948Z,3.37
2022-12-31T12:59:50.801Z,3.77
2022-12-31T13:02:38.353Z,5.03
2022-12-31T13:05:22.963Z,2.97
2022-12-31T13:08:05.069Z,4.23
2022-12-31T13:10:52.375Z,3.27
2022-12-31T13:13:29.182Z,2.83
2022-12-31T13:16:05.755Z,9.80
2022-12-31T13:18:42.945Z,3.10
2022-12-31T13:21:22.724Z,3.60
2022-12-31T13:23:57.964Z,3.93
2022-12-31T13:26:31.345Z,6.53
2022-12-31T13:29:04.451Z,4.13
2022-12-31T13:31:36.363Z,4.07
2022-12-31T13:34:09.516Z,3.13
2022-12-31T13:36:41.400Z,6.37
2022-12-31T13:39:16.981Z,2.67
2022-12-31T13:41:51.651Z,4.40
2022-12-31T13:44:30.556Z,4.10
2022-12-31T13:47:04.701Z,5.70
2022-12-31T13:49:38.348Z,3.70
2022-12-31T13:52:22.825Z,4.20
2022-12-31T13:54:57.401Z,4.90
2022-12-31T13:57:36.153Z,4.33
2022-12-31T14:00:08.290Z,4.50
2022-12-31T14:02:47.206Z,4.50
2022-12-31T14:05:20.721Z,6.40
2022-12-31T14:07:53.878Z,9.23
2022-12-31T14:10:30.382Z,6.17
2022-12-31T14:13:07.679Z,4.33
2022-12-31T14:15:43.138Z,2.77
2022-12-31T14:18:21.739Z,3.93
2022-12-31T14:20:56.032Z,3.20
2022-12-31T14:23:43.928Z,10.23
2022-12-31T14:26:20.698Z,3.53
2022-12-31T14:29:02.233Z,6.47
2022-12-31T14:31:47.041Z,2.93
2022-12-31T14:34:23.059Z,4.43
2022-12-31T14:36:59.495Z,4.17
2022-12-31T14:39:43.376Z,2.83
2022-12-31T14:42:21.596Z,5.63
2022-12-31T14:45:05.898Z,8.77
2022-12-31T14:47:48.591Z,4.47
2022-12-31T14:50:18.928Z,5.13
2022-12-31T14:52:53.214Z,3.30
2022-12-31T14:55:25.458Z,3.47
2022-12-31T14:58:26.635Z,7.00
2022-12-31T15:00:54.507Z,2.90
2022-12-31T15:03:40.004Z,4.23
2022-12-31T15:06:39.807Z,5.07
2022-12-31T15:09:18.620Z,4.13
2022-12-31T15:12:22.764Z,4.60
2022-12-31T15:15:20.465Z,4.53
2022-12-31T15:18:04.608Z,4.10
2022-12-31T15:21:23.653Z,5.30
2022-12-31T15:23:53.437Z,4.27
2022-12-31T15:26:25.234Z,3.27
2022-12-31T15:29:00.631Z,4.00
2022-12-31T15:31:33.529Z,3.83
2022-12-31T15:34:06.251Z,3.63
2022-12-31T15:36:36.132Z,3.53
2022-12-31T15:39:26.693Z,6.47
2022-12-31T15:42:36.118Z,5.07
2022-12-31T15:44:50.725Z,3.87
2022-12-31T15:47:29.391Z,4.30
2022-12-31T15:50:00.885Z,4.73
2022-12-31T15:52:37.796Z,13.23
2022-12-31T15:55:08.795Z,3.97
2022-12-31T15:57:40.965Z,3.63
2022-12-31T16:00:17.188Z,6.63
2022-12-31T16:02:46.506Z,7.80
2022-12-31T16:05:21.184Z,4.93
2022-12-31T16:07:49.759Z,6.97
2022-12-31T16:10:27.853Z,6.20
2022-12-31T16:12:58.418Z,4.90
2022-12-31T16:15:29.160Z,3.03
2022-12-31T16:18:02.781Z,3.70
2022-12-31T16:20:33.630Z,4.67
2022-12-31T16:23:04.433Z,4.63
2022-12-31T16:25:34.305Z,5.07
2022-12-31T16:28:04.669Z,5.83
2022-12-31T16:30:35.824Z,3.83
2022-12-31T16:33:06.619Z,9.93
2022-12-31T16:35:36.584Z,3.97
2022-12-31T16:38:13.515Z,3.27
2022-12-31T16:40:45.072Z,4.13
2022-12-31T16:43:26.975Z,4.50
2022-12-31T16:45:59.096Z,6.07
2022-12-31T16:48:27.804Z,6.87
2022-12-31T16:50:57.505Z,5.53
2022-12-31T16:53:29.932Z,4.90
2022-12-31T16:56:04.411Z,4.83
2022-12-31T16:58:35.687Z,3.10
2022-12-31T17:01:14.359Z,4.40
2022-12-31T17:03:45.718Z,8.70
2022-12-31T17:06:16.542Z,3.63
2022-12-31T17:08:46.930Z,11.07
2022-12-31T17:11:28.740Z,4.83
2022-12-31T17:13:59.782Z,3.73
2022-12-31T17:16:28.472Z,4.40
2022-12-31T17:18:56.802Z,3.80
2022-12-31T17:21:28.460Z,5.17
2022-12-31T17:24:01.960Z,4.57
2022-12-31T17:26:33.920Z,4.53
2022-12-31T17:29:05.927Z,3.70
2022-12-31T17:31:39.364Z,2.93
2022-12-31T17:34:23.727Z,3.63
2022-12-31T17:37:01.440Z,5.70
2022-12-31T17:39:45.600Z,5.03
2022-12-31T17:42:29.084Z,4.47
2022-12-31T17:45:00.444Z,3.50
2022-12-31T17:47:36.009Z,5.73
2022-12-31T17:50:19.724Z,4.83
2022-12-31T17:52:48.200Z,3.33
2022-12-31T17:55:16.852Z,3.33
2022-12-31T17:57:53.698Z,3.23
2022-12-31T18:00:24.767Z,4.03
2022-12-31T18:02:55.668Z,5.20
2022-12-31T18:05:25.853Z,3.40
2022-12-31T18:07:54.568Z,4.30
2022-12-31T18:10:25.168Z,3.93
2022-12-31T18:12:58.936Z,3.77
2022-12-31T18:15:27.135Z,8.33
2022-12-31T18:17:55.378Z,8.70
2022-12-31T18:20:25.094Z,11.20
2022-12-31T18:22:53.789Z,4.17
2022-12-31T18:25:24.508Z,7.93
2022-12-31T18:27:53.566Z,5.30
2022-12-31T18:30:23.505Z,4.97
2022-12-31T18:32:51.924Z,3.90
2022-12-31T18:35:49.056Z,4.63
2022-12-31T18:38:13.758Z,5.50
2022-12-31T18:40:46.542Z,2.80
2022-12-31T18:43:17.557Z,5.50
2022-12-31T18:45:47.898Z,5.50
2022-12-31T18:48:18.835Z,4.77
2022-12-31T18:50:47.947Z,3.90
2022-12-31T18:53:18.450Z,5.70
2022-12-31T18:55:49.519Z,4.13
2022-12-31T18:58:18.231Z,5.70
2022-12-31T19:00:48.442Z,3.23
2022-12-31T19:03:18.510Z,3.97
2022-12-31T19:05:49.715Z,4.60
2022-12-31T19:08:18.101Z,4.70
2022-12-31T19:10:47.293Z,4.33
2022-12-31T19:13:17.330Z,3.97
2022-12-31T19:15:49.722Z,4.37
2022-12-31T19:18:18.362Z,3.93
2022-12-31T19:20:47.118Z,5.20
2022-12-31T19:23:18.030Z,4.13
2022-12-31T19:25:47.648Z,4.57
2022-12-31T19:28:18.538Z,4.40
2022-12-31T19:30:48.493Z,3.40
2022-12-31T19:33:17.575Z,4.93
2022-12-31T19:35:46.483Z,3.67
2022-12-31T19:38:19.816Z,6.17
2022-12-31T19:40:49.196Z,5.50
2022-12-31T19:43:20.118Z,3.63
2022-12-31T19:45:50.434Z,4.17
2022-12-31T19:48:28.581Z,4.90
2022-12-31T19:51:00.433Z,6.80
2022-12-31T19:53:29.385Z,6.37
2022-12-31T19:55:57.513Z,6.90
2022-12-31T19:58:27.396Z,3.27
2022-12-31T20:01:02.712Z,6.23
2022-12-31T20:03:32.685Z,5.43
2022-12-31T20:06:06.784Z,5.50
2022-12-31T20:08:35.696Z,4.70
2022-12-31T20:11:09.235Z,6.27
2022-12-31T20:13:38.045Z,3.40
2022-12-31T20:16:09.241Z,5.03
2022-12-31T20:18:38.540Z,5.07
2022-12-31T20:21:10.834Z,4.53
2022-12-31T20:23:39.080Z,4.80
2022-12-31T20:26:07.777Z,4.03
2022-12-31T20:28:37.369Z,3.83
2022-12-31T20:31:12.087Z,5.73
2022-12-31T20:33:40.688Z,4.43
2022-12-31T20:36:11.859Z,7.97
2022-12-31T20:38:40.251Z,5.87
2022-12-31T20:41:12.607Z,3.80
2022-12-31T20:43:41.429Z,4.87
2022-12-31T20:46:15.765Z,4.53
2022-12-31T20:48:45.077Z,7.23
2022-12-31T20:51:14.143Z,6.60
2022-12-31T20:53:48.649Z,4.40
2022-12-31T20:56:18.040Z,3.90
2022-12-31T20:58:46.272Z,4.37
2022-12-31T21:01:17.308Z,3.17
2022-12-31T21:06:36.021Z,5.53
2022-12-31T21:09:07.477Z,4.10
2022-12-31T21:11:53.297Z,12.50
2022-12-31T21:14:21.840Z,4.43
2022-12-31T21:16:51.904Z,7.70
2022-12-31T21:19:20.087Z,9.90
2022-12-31T21:21:50.488Z,4.93
2022-12-31T21:24:23.483Z,3.13
2022-12-31T21:26:52.301Z,4.00
2022-12-31T21:29:22.855Z,3.97
2022-12-31T21:31:54.675Z,8.03
2022-12-31T21:34:22.846Z,7.00
2022-12-31T21:36:51.019Z,5.17
2022-12-31T21:39:19.159Z,7.90
2022-12-31T21:41:53.020Z,5.13
2022-12-31T21:44:22.580Z,6.13
2022-12-31T21:47:33.199Z,5.90
2022-12-31T21:49:44.141Z,5.60
2022-12-31T21:52:27.578Z,5.53
2022-12-31T21:55:13.618Z,7.67
2022-12-31T21:58:15.683Z,4.30
2022-12-31T22:00:47.653Z,3.50
2022-12-31T22:03:28.567Z,5.30
2022-12-31T22:06:00.655Z,6.53
2022-12-31T22:08:30.995Z,4.43
2022-12-31T22:11:01.723Z,3.73
2022-12-31T22:13:29.970Z,4.90
2022-12-31T22:16:04.626Z,4.53
2022-12-31T22:18:35.789Z,6.70
2022-12-31T22:21:13.753Z,4.60
2022-12-31T22:23:46.376Z,4.07
2022-12-31T22:26:16.618Z,3.73
2022-12-31T22:28:46.001Z,5.67
2022-12-31T22:31:15.737Z,3.63
2022-12-31T22:33:44.330Z,5.13
2022-12-31T22:36:15.300Z,5.07
2022-12-31T22:38:43.839Z,3.20
2022-12-31T22:41:13.873Z,6.50
2022-12-31T22:43:44.060Z,4.90
2022-12-31T22:46:14.055Z,5.50
2022-12-31T22:48:42.949Z,4.43
2022-12-31T22:51:15.526Z,6.90
2022-12-31T22:53:43.947Z,3.80
2022-12-31T22:56:14.985Z,8.43
2022-12-31T22:58:43.174Z,6.00
2022-12-31T23:01:19.113Z,7.30
2022-12-31T23:03:47.997Z,4.33
2022-12-31T23:06:17.832Z,25.20
2022-12-31T23:09:06.794Z,6.90
2022-12-31T23:11:35.849Z,6.00
2022-12-31T23:14:21.740Z,10.07
2022-12-31T23:17:29.520Z,9.63
2022-12-31T23:20:12.595Z,9.93
2022-12-31T23:22:59.796Z,12.60
2022-12-31T23:25:27.997Z,10.87
2022-12-31T23:27:56.149Z,26.57
2022-12-31T23:30:24.324Z,12.50
2022-12-31T23:32:52.686Z,15.10
2022-12-31T23:35:20.873Z,12.30
2022-12-31T23:37:50.490Z,14.40
2022-12-31T23:40:21.498Z,12.97
2022-12-31T23:42:50.546Z,8.00
2022-12-31T23:45:26.960Z,9.53
2022-12-31T23:47:58.014Z,11.37
2022-12-31T23:50:27.145Z,8.97
2022-12-31T23:52:56.734Z,7.83
2022-12-31T23:55:24.932Z,6.83
2022-12-31T23:57:53.123Z,7.27
